Time;durP1;ratioP1;P1;durP2;ratioP2;P2;SDS_P1;SDS_P2;PMS_P1;PMS_P2;Temp;Humidity;BMP_temperature;BMP_pressure;BME280_temperature;BME280_humidity;BME280_pressure;Samples;Min_cycle;Max_cycle;Signal;HPM_P1;HPM_P2
2022/01/29 00:02:03;;;;;;;41.10;24.98;;;9.20;76.10;;;;;;5093288;28;20060;-63
2022/01/29 00:04:29;;;;;;;35.92;21.30;;;9.20;76.20;;;;;;5094094;28;20092;-63
2022/01/29 00:06:55;;;;;;;39.00;24.05;;;9.10;76.20;;;;;;5094126;28;20360;-63
2022/01/29 00:09:20;;;;;;;35.22;21.48;;;9.10;76.30;;;;;;5094608;28;20036;-63
2022/01/29 00:11:46;;;;;;;35.63;21.60;;;9.20;76.30;;;;;;5093201;28;20306;-63
2022/01/29 00:14:11;;;;;;;40.33;23.15;;;9.20;76.30;;;;;;5094035;28;20085;-63
2022/01/29 00:16:40;;;;;;;40.55;24.55;;;9.20;76.20;;;;;;5094093;28;20077;-63
2022/01/29 00:19:06;;;;;;;35.55;21.48;;;9.20;76.20;;;;;;5074838;28;20032;-63
2022/01/29 00:21:32;;;;;;;37.25;23.73;;;9.20;76.10;;;;;;5088850;28;20448;-63
2022/01/29 00:23:57;;;;;;;38.72;23.50;;;9.20;76.30;;;;;;5093753;28;20027;-63
2022/01/29 00:26:25;;;;;;;33.40;22.20;;;9.20;76.40;;;;;;5092887;28;20035;-63
2022/01/29 00:28:51;;;;;;;41.92;24.40;;;9.20;76.60;;;;;;5093982;28;20348;-63
2022/01/29 00:31:18;;;;;;;38.85;23.95;;;9.20;76.80;;;;;;5094268;28;20119;-63
2022/01/29 00:33:44;;;;;;;36.83;22.75;;;9.10;76.90;;;;;;5093689;28;20039;-63
2022/01/29 00:36:09;;;;;;;36.30;23.38;;;9.10;77.10;;;;;;5094363;28;20020;-63
2022/01/29 00:38:35;;;;;;;37.53;22.60;;;9.10;77.30;;;;;;5094037;28;20036;-63
2022/01/29 00:41:03;;;;;;;36.70;22.55;;;9.00;77.40;;;;;;5093950;28;20028;-63
2022/01/29 00:43:29;;;;;;;34.83;22.35;;;9.10;78.30;;;;;;5086182;28;20054;-63
2022/01/29 00:45:55;;;;;;;36.75;23.27;;;9.00;77.70;;;;;;5094309;28;20032;-63
2022/01/29 00:48:21;;;;;;;37.65;24.10;;;9.00;77.80;;;;;;5093516;28;20031;-63
2022/01/29 00:50:46;;;;;;;41.92;24.73;;;9.00;78.00;;;;;;5093240;28;20024;-63
2022/01/29 00:53:12;;;;;;;39.83;25.33;;;9.00;78.10;;;;;;5094234;28;20021;-63
2022/01/29 00:55:41;;;;;;;39.85;22.80;;;9.00;78.20;;;;;;5098321;28;20094;-63
2022/01/29 00:58:06;;;;;;;42.22;25.23;;;9.00;78.30;;;;;;5097884;28;20046;-63
2022/01/29 01:00:32;;;;;;;41.30;24.63;;;9.00;78.40;;;;;;5097164;28;20456;-63
2022/01/29 01:02:58;;;;;;;39.38;23.10;;;9.00;78.40;;;;;;5097968;28;20364;-63
2022/01/29 01:05:23;;;;;;;40.10;25.45;;;9.00;78.60;;;;;;5096820;28;20027;-63
2022/01/29 01:07:49;;;;;;;44.63;27.08;;;9.00;78.60;;;;;;5097027;28;20570;-63
2022/01/29 01:10:14;;;;;;;38.72;23.63;;;9.00;78.60;;;;;;5097747;28;20036;-62
2022/01/29 01:12:40;;;;;;;39.13;22.42;;;9.00;78.70;;;;;;5097728;28;20024;-62
2022/01/29 01:15:07;;;;;;;41.08;26.05;;;9.10;79.40;;;;;;5097574;28;20084;-63
2022/01/29 01:17:33;;;;;;;35.38;22.52;;;9.00;78.70;;;;;;5097679;28;20039;-63
2022/01/29 01:19:58;;;;;;;37.78;23.52;;;9.00;78.80;;;;;;5097881;28;20337;-63
2022/01/29 01:22:24;;;;;;;35.13;22.48;;;9.00;78.90;;;;;;5096936;28;20043;-63
2022/01/29 01:24:50;;;;;;;37.78;24.17;;;9.00;78.90;;;;;;5095784;28;20364;-63
2022/01/29 01:27:15;;;;;;;40.80;26.55;;;9.10;79.00;;;;;;5095435;28;20028;-63
2022/01/29 01:29:41;;;;;;;36.20;24.27;;;9.00;78.80;;;;;;5097518;28;20399;-63
2022/01/29 01:32:11;;;;;;;40.60;24.02;;;9.10;79.00;;;;;;5097451;28;20393;-63
2022/01/29 01:34:42;;;;;;;38.05;22.88;;;9.00;78.90;;;;;;5097037;28;20361;-63
2022/01/29 01:37:12;;;;;;;39.57;24.87;;;9.10;79.20;;;;;;5097498;28;20028;-63
2022/01/29 01:39:39;;;;;;;38.97;23.17;;;9.10;79.20;;;;;;5097231;28;20103;-63
2022/01/29 01:42:07;;;;;;;39.50;23.70;;;9.10;79.20;;;;;;5097200;28;20051;-63
2022/01/29 01:44:42;;;;;;;40.83;23.08;;;9.10;79.20;;;;;;5096247;28;20464;-63
2022/01/29 01:47:07;;;;;;;34.53;21.75;;;9.10;79.30;;;;;;5095723;28;20127;-63
2022/01/29 01:49:33;;;;;;;38.17;23.92;;;9.10;79.30;;;;;;5096998;28;20138;-63
2022/01/29 01:51:59;;;;;;;37.97;23.83;;;9.10;79.30;;;;;;5095793;28;20028;-62
2022/01/29 01:54:25;;;;;;;35.40;23.63;;;9.10;79.50;;;;;;5090601;28;20028;-63
2022/01/29 01:56:50;;;;;;;35.67;23.02;;;9.10;79.50;;;;;;5096853;28;20028;-63
2022/01/29 01:59:16;;;;;;;37.17;22.50;;;9.10;79.50;;;;;;5096693;28;20032;-63
2022/01/29 02:01:42;;;;;;;33.55;20.65;;;9.10;79.50;;;;;;5096054;28;20055;-63
2022/01/29 02:04:07;;;;;;;36.30;23.25;;;9.10;79.50;;;;;;5094665;28;20429;-63
2022/01/29 02:06:33;;;;;;;34.35;22.50;;;9.10;79.50;;;;;;5096856;28;20035;-63
2022/01/29 02:09:00;;;;;;;39.38;22.13;;;9.20;79.60;;;;;;5096389;28;20105;-63
2022/01/29 02:11:28;;;;;;;37.70;21.70;;;9.10;79.60;;;;;;5096850;28;20162;-63
2022/01/29 02:13:59;;;;;;;38.15;23.60;;;9.10;79.70;;;;;;5096347;28;20036;-63
2022/01/29 02:16:27;;;;;;;37.70;23.13;;;9.10;79.80;;;;;;5097212;28;20136;-63
2022/01/29 02:18:52;;;;;;;34.90;22.80;;;9.10;79.80;;;;;;5096379;28;20360;-63
2022/01/29 02:21:19;;;;;;;36.33;23.40;;;9.10;79.90;;;;;;5096507;28;20028;-63
2022/01/29 02:23:45;;;;;;;35.15;21.95;;;9.10;80.00;;;;;;5096041;28;20024;-63
2022/01/29 02:26:11;;;;;;;36.55;21.50;;;9.10;80.00;;;;;;5096125;28;20368;-63
2022/01/29 02:28:36;;;;;;;31.42;20.17;;;9.10;80.20;;;;;;5095992;28;20035;-63
2022/01/29 02:31:04;;;;;;;29.02;20.95;;;9.10;80.20;;;;;;5096030;28;20356;-63
2022/01/29 02:33:32;;;;;;;33.00;20.73;;;9.10;80.30;;;;;;5095156;28;20043;-63
2022/01/29 02:35:58;;;;;;;30.73;21.00;;;9.10;80.30;;;;;;5095936;28;20032;-63
2022/01/29 02:38:26;;;;;;;34.30;23.52;;;9.10;80.40;;;;;;5094859;28;20070;-63
2022/01/29 02:40:56;;;;;;;32.60;20.40;;;9.10;80.50;;;;;;5095017;28;20024;-63
2022/01/29 02:43:27;;;;;;;33.17;20.30;;;9.10;80.50;;;;;;5095327;28;20036;-63
2022/01/29 02:45:54;;;;;;;30.80;20.02;;;9.10;80.50;;;;;;5094994;28;20089;-63
2022/01/29 02:48:21;;;;;;;28.98;19.08;;;9.10;80.60;;;;;;5095386;28;20031;-63
2022/01/29 02:50:48;;;;;;;28.33;18.40;;;9.10;80.60;;;;;;5095849;28;20028;-63
2022/01/29 02:53:13;;;;;;;29.02;18.40;;;9.10;80.80;;;;;;5096557;28;20028;-63
2022/01/29 02:55:39;;;;;;;30.63;19.35;;;9.10;80.90;;;;;;5093748;28;20035;-63
2022/01/29 02:58:05;;;;;;;30.35;20.38;;;9.10;81.00;;;;;;5095699;28;20174;-63
2022/01/29 03:00:31;;;;;;;27.50;19.13;;;9.10;81.10;;;;;;5094806;28;20099;-63
2022/01/29 03:02:57;;;;;;;25.70;17.23;;;9.10;81.10;;;;;;5094964;28;20454;-63
2022/01/29 03:05:23;;;;;;;31.33;19.90;;;9.10;81.20;;;;;;5095153;28;20051;-62
2022/01/29 03:07:49;;;;;;;26.95;18.95;;;9.10;81.10;;;;;;5095810;28;20039;-64
2022/01/29 03:10:14;;;;;;;23.38;16.38;;;9.10;81.20;;;;;;5091124;28;20020;-62
2022/01/29 03:12:41;;;;;;;24.40;16.95;;;9.10;81.20;;;;;;5095816;28;20492;-63
2022/01/29 03:15:08;;;;;;;27.88;18.60;;;9.10;81.20;;;;;;5094837;28;20024;-63
2022/01/29 03:17:34;;;;;;;28.10;18.10;;;9.10;81.30;;;;;;5094543;28;20036;-63
2022/01/29 03:20:00;;;;;;;25.13;16.92;;;9.10;81.40;;;;;;5094397;28;20028;-62
2022/01/29 03:22:25;;;;;;;25.75;17.70;;;9.10;81.40;;;;;;5094447;28;20035;-62
2022/01/29 03:24:51;;;;;;;27.13;18.23;;;9.10;81.50;;;;;;5094905;28;20028;-62
2022/01/29 03:27:16;;;;;;;25.52;16.92;;;9.10;81.50;;;;;;5075626;28;20036;-62
2022/01/29 03:29:42;;;;;;;24.30;16.27;;;9.20;81.50;;;;;;5075567;28;20115;-62
2022/01/29 03:32:08;;;;;;;25.45;18.05;;;9.20;81.60;;;;;;5095046;28;20044;-63
2022/01/29 03:34:34;;;;;;;22.85;15.93;;;9.20;81.60;;;;;;5095007;28;20047;-63
2022/01/29 03:37:00;;;;;;;24.30;16.33;;;9.20;81.60;;;;;;5094474;28;20032;-63
2022/01/29 03:39:27;;;;;;;24.17;17.23;;;9.20;81.60;;;;;;5095107;28;20114;-63
2022/01/29 03:41:54;;;;;;;25.20;17.88;;;9.20;81.60;;;;;;5094855;28;20036;-63
2022/01/29 03:44:20;;;;;;;24.13;16.73;;;9.10;81.70;;;;;;5094843;28;20028;-63
2022/01/29 03:46:47;;;;;;;23.70;16.05;;;9.10;81.80;;;;;;5093163;28;20036;-63
2022/01/29 03:49:13;;;;;;;25.02;17.42;;;9.20;81.90;;;;;;5093464;28;20464;-63
2022/01/29 03:51:38;;;;;;;24.85;17.70;;;9.10;81.80;;;;;;5094599;28;20024;-63
2022/01/29 03:54:04;;;;;;;24.80;15.70;;;9.10;81.90;;;;;;5093978;28;20036;-63
2022/01/29 03:56:30;;;;;;;24.92;16.50;;;9.20;81.90;;;;;;5094280;28;20031;-63
2022/01/29 03:58:55;;;;;;;20.05;14.40;;;9.20;81.90;;;;;;5094745;28;20035;-63
2022/01/29 04:01:21;;;;;;;21.88;15.27;;;9.20;82.00;;;;;;5094327;28;20110;-63
2022/01/29 04:03:46;;;;;;;21.65;14.88;;;9.20;82.00;;;;;;5094840;28;20062;-63
2022/01/29 04:06:12;;;;;;;22.05;15.57;;;9.20;82.00;;;;;;5094216;28;20027;-63
2022/01/29 04:08:42;;;;;;;24.08;15.52;;;9.20;82.00;;;;;;5094607;28;20046;-63
2022/01/29 04:11:11;;;;;;;24.63;16.05;;;9.10;82.10;;;;;;5094856;28;20016;-63
2022/01/29 04:13:43;;;;;;;24.55;16.08;;;9.20;82.20;;;;;;5094776;28;20108;-63
2022/01/29 04:16:10;;;;;;;23.60;15.82;;;9.20;82.20;;;;;;5093600;28;20044;-63
2022/01/29 04:18:35;;;;;;;27.80;18.30;;;9.20;82.30;;;;;;5093630;28;20085;-63
2022/01/29 04:21:03;;;;;;;22.00;15.70;;;9.20;82.30;;;;;;5094367;28;20391;-62
2022/01/29 04:23:28;;;;;;;24.40;16.83;;;9.20;82.30;;;;;;5094513;28;20028;-62
2022/01/29 04:25:54;;;;;;;24.10;15.90;;;9.20;82.40;;;;;;5093903;28;20080;-62
2022/01/29 04:28:24;;;;;;;24.08;16.98;;;9.20;82.40;;;;;;5094110;28;20124;-63
2022/01/29 04:30:56;;;;;;;29.05;18.40;;;9.20;82.50;;;;;;5093331;28;20028;-63
2022/01/29 04:35:47;;;;;;;28.90;19.10;;;9.20;82.60;;;;;;5093431;28;20477;-63
2022/01/29 04:38:13;;;;;;;33.50;19.90;;;9.20;82.60;;;;;;5094054;28;20032;-63
2022/01/29 04:40:38;;;;;;;26.35;17.83;;;9.20;82.70;;;;;;5094380;28;20032;-63
2022/01/29 04:43:05;;;;;;;28.15;18.77;;;9.20;82.70;;;;;;5093011;28;20058;-63
2022/01/29 04:45:31;;;;;;;28.55;18.48;;;9.30;82.90;;;;;;5092768;28;20028;-63
2022/01/29 04:47:56;;;;;;;29.27;19.23;;;9.20;82.90;;;;;;5093333;28;20119;-63
2022/01/29 04:50:22;;;;;;;32.70;20.23;;;9.20;82.90;;;;;;5094414;28;20104;-63
2022/01/29 04:52:48;;;;;;;30.52;19.77;;;9.30;83.00;;;;;;5093913;28;20077;-63
2022/01/29 04:55:13;;;;;;;30.00;18.30;;;9.30;83.00;;;;;;5093608;28;20036;-63
2022/01/29 04:57:41;;;;;;;31.45;19.65;;;9.30;83.00;;;;;;5093468;28;20082;-63
2022/01/29 05:00:19;;;;;;;28.40;18.42;;;9.30;83.00;;;;;;5094183;28;20464;-63
2022/01/29 05:02:45;;;;;;;29.13;18.85;;;9.40;83.10;;;;;;5093145;28;20109;-63
2022/01/29 05:05:11;;;;;;;29.77;19.95;;;9.30;83.10;;;;;;5094080;28;20400;-63
2022/01/29 05:07:36;;;;;;;29.70;18.70;;;9.30;83.10;;;;;;5092875;28;20123;-63
2022/01/29 05:10:03;;;;;;;32.28;20.83;;;9.30;83.20;;;;;;5093975;28;20355;-63
2022/01/29 05:12:35;;;;;;;32.13;19.98;;;9.30;83.30;;;;;;5090542;28;20024;-63
2022/01/29 05:15:09;;;;;;;29.88;19.48;;;9.30;83.30;;;;;;5093809;28;20032;-63
2022/01/29 05:28:31;;;;;;;32.47;20.73;;;9.40;83.50;;;;;;5092926;28;20043;-63
2022/01/29 05:30:57;;;;;;;27.98;19.70;;;9.40;83.40;;;;;;5093589;28;20349;-63
2022/01/29 05:33:22;;;;;;;33.78;20.83;;;9.40;83.50;;;;;;5093452;28;20162;-62
2022/01/29 05:35:48;;;;;;;31.85;20.52;;;9.40;83.60;;;;;;5093290;28;20028;-63
2022/01/29 05:38:14;;;;;;;33.15;21.25;;;9.40;83.60;;;;;;5093903;28;20031;-63
2022/01/29 05:40:39;;;;;;;31.65;21.17;;;9.40;83.70;;;;;;5095270;28;20100;-63
2022/01/29 05:43:05;;;;;;;33.80;21.45;;;9.40;83.70;;;;;;5097415;28;20110;-63
2022/01/29 05:45:30;;;;;;;33.35;21.63;;;9.40;83.60;;;;;;5096566;28;20036;-64
2022/01/29 05:47:56;;;;;;;34.00;21.85;;;9.40;83.70;;;;;;5096980;28;20436;-63
2022/01/29 05:50:21;;;;;;;31.23;21.90;;;9.40;83.80;;;;;;5093726;28;20118;-63
2022/01/29 05:52:47;;;;;;;34.25;22.27;;;9.40;83.80;;;;;;5096670;28;20020;-63
2022/01/29 05:55:13;;;;;;;32.67;21.35;;;9.40;83.80;;;;;;5096702;28;20024;-64
2022/01/29 05:57:38;;;;;;;38.00;22.58;;;9.50;83.90;;;;;;5095960;28;20128;-63
2022/01/29 06:00:05;;;;;;;34.20;20.58;;;9.40;83.90;;;;;;5096289;28;20032;-63
2022/01/29 06:02:40;;;;;;;32.10;19.92;;;9.40;83.90;;;;;;5097070;28;20115;-63
2022/01/29 06:05:06;;;;;;;30.02;20.20;;;9.50;84.00;;;;;;5096245;28;20389;-63
2022/01/29 06:07:32;;;;;;;31.30;20.02;;;9.50;84.00;;;;;;5097123;28;20040;-63
2022/01/29 06:09:57;;;;;;;33.17;20.55;;;9.50;84.10;;;;;;5095634;28;20353;-63
2022/01/29 06:12:24;;;;;;;30.70;19.30;;;9.50;84.10;;;;;;5065825;28;20411;-63
2022/01/29 06:14:50;;;;;;;30.65;20.45;;;9.50;84.10;;;;;;5093452;28;20039;-63
2022/01/29 06:17:16;;;;;;;31.95;20.45;;;9.50;84.10;;;;;;5095583;28;20036;-63
2022/01/29 06:19:41;;;;;;;31.05;19.60;;;9.50;84.10;;;;;;5095911;28;20043;-63
2022/01/29 06:22:11;;;;;;;32.75;20.45;;;9.50;84.10;;;;;;5096397;28;20020;-63
2022/01/29 06:24:36;;;;;;;37.20;21.88;;;9.50;84.10;;;;;;5096011;28;20035;-63
2022/01/29 06:27:02;;;;;;;28.52;19.55;;;9.60;84.20;;;;;;5096513;28;20041;-63
2022/01/29 06:29:28;;;;;;;29.80;20.00;;;9.60;84.20;;;;;;5095999;28;20031;-63
2022/01/29 06:31:53;;;;;;;30.88;19.27;;;9.60;84.30;;;;;;5095133;28;20131;-62
2022/01/29 06:34:19;;;;;;;28.55;17.92;;;9.60;84.20;;;;;;5096181;28;20021;-63
2022/01/29 06:36:44;;;;;;;28.10;18.98;;;9.60;84.30;;;;;;5096175;28;20028;-62
2022/01/29 06:39:10;;;;;;;27.23;17.02;;;9.60;84.30;;;;;;5096032;28;20039;-62
2022/01/29 06:41:35;;;;;;;29.92;17.85;;;9.70;84.30;;;;;;5095852;28;20498;-63
2022/01/29 06:44:01;;;;;;;31.45;19.25;;;9.60;84.30;;;;;;5095155;28;20125;-63
2022/01/29 06:46:27;;;;;;;28.90;17.27;;;9.70;84.30;;;;;;5095507;28;20032;-63
2022/01/29 06:48:53;;;;;;;25.00;16.98;;;9.70;84.30;;;;;;5096096;28;20089;-63
2022/01/29 06:51:18;;;;;;;28.42;17.90;;;9.70;84.40;;;;;;5095652;28;20081;-63
2022/01/29 06:53:44;;;;;;;24.75;16.98;;;9.70;84.40;;;;;;5096009;28;20095;-63
2022/01/29 06:56:10;;;;;;;23.80;16.20;;;9.70;84.40;;;;;;5095445;28;20024;-63
2022/01/29 06:58:35;;;;;;;23.48;15.50;;;9.80;84.50;;;;;;5096418;28;20024;-63
2022/01/29 07:01:02;;;;;;;22.30;14.52;;;9.80;84.50;;;;;;5095466;28;20031;-62
2022/01/29 07:03:27;;;;;;;24.88;16.48;;;9.80;84.40;;;;;;5095337;28;20138;-63
2022/01/29 07:05:53;;;;;;;28.63;17.08;;;9.80;84.40;;;;;;5095547;28;20126;-63
2022/01/29 07:08:18;;;;;;;23.45;15.00;;;9.80;84.40;;;;;;5094802;28;20020;-63
2022/01/29 07:10:45;;;;;;;23.55;15.13;;;9.80;84.30;;;;;;5094838;28;20020;-63
2022/01/29 07:13:11;;;;;;;27.98;14.68;;;9.90;84.40;;;;;;5093966;28;20165;-63
2022/01/29 07:15:37;;;;;;;22.60;13.98;;;9.90;84.40;;;;;;5095167;28;20103;-63
2022/01/29 07:18:03;;;;;;;23.95;14.95;;;9.90;84.40;;;;;;5093991;28;20032;-63
2022/01/29 07:20:29;;;;;;;23.00;15.27;;;9.90;84.40;;;;;;5075230;28;20024;-62
2022/01/29 07:22:54;;;;;;;24.70;14.77;;;9.90;84.40;;;;;;5093513;28;20031;-62
2022/01/29 07:25:20;;;;;;;21.23;14.30;;;10.00;84.40;;;;;;5089120;28;20417;-63
2022/01/29 07:27:45;;;;;;;22.13;15.07;;;10.00;84.40;;;;;;5087802;28;20039;-62
2022/01/29 07:30:11;;;;;;;20.30;13.20;;;10.00;84.50;;;;;;5095954;28;20054;-63
2022/01/29 07:32:43;;;;;;;23.13;13.60;;;10.00;84.50;;;;;;5094556;28;20040;-63
2022/01/29 07:35:09;;;;;;;23.05;14.25;;;10.00;84.60;;;;;;5095406;28;20093;-63
2022/01/29 07:37:34;;;;;;;19.95;13.60;;;10.00;84.60;;;;;;5094353;28;20429;-62
2022/01/29 07:40:00;;;;;;;19.35;12.27;;;10.00;84.70;;;;;;5094867;28;20355;-62
2022/01/29 07:42:25;;;;;;;18.40;12.18;;;10.00;84.70;;;;;;5094266;28;20432;-62
2022/01/29 07:44:51;;;;;;;20.83;12.63;;;10.00;84.80;;;;;;5095119;28;20020;-62
2022/01/29 07:47:16;;;;;;;18.83;12.25;;;10.00;84.80;;;;;;5094736;28;20028;-62
2022/01/29 07:49:42;;;;;;;20.33;12.13;;;10.00;84.90;;;;;;5094732;28;20411;-62
2022/01/29 07:52:07;;;;;;;19.13;12.07;;;10.00;84.90;;;;;;5094800;28;20103;-62
2022/01/29 07:54:33;;;;;;;18.60;11.50;;;10.00;84.90;;;;;;5094892;28;20449;-63
2022/01/29 07:56:59;;;;;;;15.73;10.68;;;10.10;85.00;;;;;;5093347;28;20081;-63
2022/01/29 07:59:24;;;;;;;15.75;10.13;;;10.10;84.90;;;;;;5089191;28;20067;-63
2022/01/29 08:01:50;;;;;;;17.98;10.48;;;10.10;85.00;;;;;;5095211;28;20043;-63
2022/01/29 08:04:15;;;;;;;15.25;9.43;;;10.20;84.90;;;;;;5094391;28;20113;-63
2022/01/29 08:06:41;;;;;;;15.93;10.23;;;10.20;84.90;;;;;;5094368;28;20032;-63
2022/01/29 08:09:08;;;;;;;13.65;9.18;;;10.30;84.80;;;;;;5094503;28;20020;-63
2022/01/29 08:11:34;;;;;;;13.63;8.68;;;10.30;84.80;;;;;;5095150;28;20036;-63
2022/01/29 08:14:00;;;;;;;15.50;9.30;;;10.30;84.90;;;;;;5087258;28;20517;-63
2022/01/29 08:16:25;;;;;;;14.98;9.27;;;10.30;84.90;;;;;;5094119;28;20051;-63
2022/01/29 08:18:51;;;;;;;13.77;8.57;;;10.30;85.00;;;;;;5093412;28;20020;-63
2022/01/29 08:21:17;;;;;;;14.18;8.23;;;10.30;85.10;;;;;;5094007;28;20027;-63
2022/01/29 08:23:44;;;;;;;13.60;8.52;;;10.30;85.10;;;;;;5095028;28;20032;-63
2022/01/29 08:26:11;;;;;;;12.65;7.85;;;10.30;85.20;;;;;;5092234;28;20036;-63
2022/01/29 08:28:37;;;;;;;14.80;7.15;;;10.30;85.20;;;;;;5092918;28;20032;-63
2022/01/29 08:31:03;;;;;;;13.05;7.93;;;10.30;85.20;;;;;;5093930;28;20052;-63
2022/01/29 08:33:29;;;;;;;13.13;8.30;;;10.30;85.20;;;;;;5093630;28;20060;-63
2022/01/29 08:35:57;;;;;;;14.77;9.05;;;10.30;85.20;;;;;;5094913;28;20399;-63
2022/01/29 08:38:23;;;;;;;14.80;8.55;;;10.30;85.20;;;;;;5094405;28;20430;-63
2022/01/29 08:40:48;;;;;;;14.10;9.82;;;10.30;85.30;;;;;;5094658;28;20020;-63
2022/01/29 08:43:14;;;;;;;14.75;9.27;;;10.40;85.30;;;;;;5094099;28;20055;-63
2022/01/29 08:45:40;;;;;;;14.15;8.73;;;10.40;85.30;;;;;;5094368;28;20449;-63
2022/01/29 08:48:06;;;;;;;14.05;8.73;;;10.40;85.30;;;;;;5093685;28;20059;-63
2022/01/29 08:50:32;;;;;;;15.07;8.65;;;10.40;85.40;;;;;;5093370;28;20058;-64
2022/01/29 08:52:57;;;;;;;13.85;9.55;;;10.40;85.40;;;;;;5093740;28;20078;-64
2022/01/29 08:55:23;;;;;;;16.15;9.25;;;10.40;85.50;;;;;;5094354;28;20031;-64
2022/01/29 08:57:49;;;;;;;13.75;9.32;;;10.40;85.50;;;;;;5093983;28;20170;-64
2022/01/29 09:00:15;;;;;;;13.35;8.70;;;10.40;85.40;;;;;;5075853;28;20118;-64
2022/01/29 09:02:41;;;;;;;13.02;8.55;;;10.50;86.20;;;;;;5084211;28;20020;-64
2022/01/29 09:05:07;;;;;;;14.60;8.77;;;10.50;85.50;;;;;;5093495;28;20020;-64
2022/01/29 09:07:33;;;;;;;11.20;7.90;;;10.50;85.50;;;;;;5092948;28;20441;-64
2022/01/29 09:09:59;;;;;;;13.70;8.13;;;10.50;85.50;;;;;;5092195;28;20103;-64
2022/01/29 09:12:25;;;;;;;12.38;8.27;;;10.50;85.50;;;;;;5092779;28;20031;-64
2022/01/29 09:14:50;;;;;;;13.02;8.57;;;10.50;85.60;;;;;;5095338;28;20348;-64
2022/01/29 09:17:16;;;;;;;12.63;7.88;;;10.50;85.60;;;;;;5097306;28;20028;-64
2022/01/29 09:19:41;;;;;;;14.90;8.73;;;10.50;85.60;;;;;;5098477;28;20364;-64
2022/01/29 09:22:07;;;;;;;14.25;8.00;;;10.50;85.70;;;;;;5098087;28;20411;-64
2022/01/29 09:24:33;;;;;;;11.02;7.40;;;10.50;85.70;;;;;;5096890;28;20038;-64
2022/01/29 09:26:59;;;;;;;15.23;7.88;;;10.50;85.70;;;;;;5098347;28;20368;-64
2022/01/29 09:29:25;;;;;;;14.55;8.18;;;10.50;85.70;;;;;;5097931;28;20085;-64
2022/01/29 09:31:50;;;;;;;13.48;7.95;;;10.60;85.80;;;;;;5097716;28;20044;-64
2022/01/29 09:34:16;;;;;;;14.55;8.10;;;10.60;85.80;;;;;;5098471;28;20051;-64
2022/01/29 09:36:41;;;;;;;11.23;7.50;;;10.60;85.70;;;;;;5097177;28;20036;-64
2022/01/29 09:39:07;;;;;;;12.63;7.53;;;10.60;85.70;;;;;;5097034;28;20028;-64
2022/01/29 09:41:36;;;;;;;14.75;7.97;;;10.60;85.70;;;;;;5097837;28;20016;-64
2022/01/29 09:44:02;;;;;;;12.88;7.03;;;10.60;85.80;;;;;;5097034;28;20161;-64
2022/01/29 09:46:30;;;;;;;11.75;7.32;;;10.60;85.70;;;;;;5096536;28;20028;-64
2022/01/29 09:48:56;;;;;;;12.05;7.20;;;10.70;85.80;;;;;;5097951;28;20095;-64
2022/01/29 09:51:21;;;;;;;13.55;8.07;;;10.70;85.80;;;;;;5096086;28;20032;-64
2022/01/29 09:53:47;;;;;;;10.30;7.03;;;10.70;85.70;;;;;;5097717;28;20348;-64
2022/01/29 09:56:14;;;;;;;14.85;7.63;;;10.70;85.70;;;;;;5098082;28;20110;-64
2022/01/29 09:58:42;;;;;;;11.75;7.20;;;10.70;85.60;;;;;;5098002;28;20063;-64
2022/01/29 10:01:08;;;;;;;11.85;8.18;;;10.70;85.60;;;;;;5097490;28;20032;-64
2022/01/29 10:03:33;;;;;;;14.32;7.32;;;10.70;85.60;;;;;;5097359;28;20039;-64
2022/01/29 10:06:00;;;;;;;11.32;6.63;;;10.80;85.70;;;;;;5097691;28;20028;-64
2022/01/29 10:08:27;;;;;;;10.30;6.80;;;10.80;85.70;;;;;;5096217;28;20031;-64
2022/01/29 10:11:02;;;;;;;11.30;5.90;;;10.80;85.70;;;;;;5096655;28;20429;-65
2022/01/29 10:13:38;;;;;;;9.38;6.38;;;10.80;85.70;;;;;;5096940;28;20020;-64
2022/01/29 10:16:09;;;;;;;10.48;5.95;;;10.80;85.60;;;;;;5096010;28;20016;-67
2022/01/29 10:18:35;;;;;;;;;;;10.80;85.50;;;;;;5111141;28;20024;-65
2022/01/29 10:21:23;;;;;;;8.68;4.20;;;10.80;85.40;;;;;;5096486;28;19919;-65
2022/01/29 10:24:08;;;;;;;8.65;4.93;;;10.80;85.30;;;;;;5096469;28;20032;-64
2022/01/29 10:26:39;;;;;;;11.15;5.05;;;10.80;85.30;;;;;;5089735;28;20066;-65
2022/01/29 10:29:15;;;;;;;10.13;4.97;;;10.90;85.40;;;;;;5095434;28;20441;-65
2022/01/29 10:32:00;;;;;;;8.90;4.53;;;10.90;85.30;;;;;;5081657;28;20465;-65
2022/01/29 10:34:31;;;;;;;10.50;4.78;;;10.90;85.30;;;;;;5084661;28;20397;-64
2022/01/29 10:37:16;;;;;;;9.35;5.47;;;10.90;85.20;;;;;;5096523;28;20024;-64
2022/01/29 10:39:49;;;;;;;9.40;4.50;;;11.00;85.10;;;;;;5087347;28;20035;-64
2022/01/29 10:42:32;;;;;;;10.18;4.82;;;11.00;85.00;;;;;;5094744;28;20437;-64
2022/01/29 10:45:04;;;;;;;9.70;4.85;;;11.00;85.00;;;;;;5094618;28;20024;-65
2022/01/29 10:47:31;;;;;;;11.15;5.22;;;11.00;85.00;;;;;;5096511;28;20038;-64
2022/01/29 10:50:02;;;;;;;10.68;4.55;;;11.00;85.00;;;;;;5077904;28;20360;-64
2022/01/29 10:52:33;;;;;;;6.43;3.60;;;11.00;85.00;;;;;;5096601;28;20081;-64
2022/01/29 10:55:02;;;;;;;7.80;4.18;;;11.00;85.00;;;;;;5096269;28;20032;-64
2022/01/29 10:57:37;;;;;;;7.28;3.90;;;11.10;84.90;;;;;;5096123;28;20036;-65
2022/01/29 11:00:06;;;;;;;7.93;4.15;;;11.10;84.80;;;;;;5094123;28;20096;-65
2022/01/29 11:02:32;;;;;;;10.15;4.20;;;11.20;84.70;;;;;;5078449;28;20092;-63
2022/01/29 11:05:01;;;;;;;7.22;4.00;;;11.20;84.50;;;;;;5090804;28;20021;-63
2022/01/29 11:07:29;;;;;;;7.20;3.47;;;11.20;84.50;;;;;;5091892;28;20066;-64
2022/01/29 11:09:55;;;;;;;7.93;3.35;;;11.20;84.40;;;;;;5095377;28;20157;-65
2022/01/29 11:12:23;;;;;;;7.95;3.63;;;11.20;84.30;;;;;;5096512;28;20061;-66
2022/01/29 11:14:52;;;;;;;6.65;3.33;;;11.30;84.30;;;;;;5095611;28;20031;-66
2022/01/29 11:17:18;;;;;;;9.40;3.58;;;11.30;84.30;;;;;;5093506;28;20036;-65
2022/01/29 11:19:45;;;;;;;8.45;4.10;;;11.30;84.20;;;;;;5095664;28;20077;-66
2022/01/29 11:22:12;;;;;;;7.00;3.30;;;11.40;84.10;;;;;;5095132;28;20391;-66
2022/01/29 11:24:41;;;;;;;7.03;3.08;;;11.40;84.00;;;;;;5095568;28;20697;-66
2022/01/29 11:27:29;;;;;;;9.02;3.22;;;11.40;83.90;;;;;;5095053;28;20032;-66
2022/01/29 11:30:11;;;;;;;8.50;3.03;;;11.40;83.80;;;;;;5076099;28;20024;-63
2022/01/29 11:32:42;;;;;;;7.05;2.70;;;11.40;83.80;;;;;;5078321;28;20434;-63
2022/01/29 11:35:15;;;;;;;8.10;2.42;;;11.40;83.80;;;;;;5093535;28;20024;-64
2022/01/29 11:37:49;;;;;;;6.72;2.42;;;11.40;83.80;;;;;;5094162;28;20032;-63
2022/01/29 11:40:19;;;;;;;5.95;2.10;;;11.40;83.60;;;;;;5093591;28;20024;-65
2022/01/29 11:42:57;;;;;;;8.55;2.28;;;11.40;83.60;;;;;;5092348;28;20036;-63
2022/01/29 11:45:29;;;;;;;5.88;2.28;;;11.50;83.50;;;;;;5092556;28;20039;-63
2022/01/29 11:47:54;;;;;;;;;;;11.50;83.50;;;;;;5095085;28;20165;-63
2022/01/29 11:50:23;;;;;;;8.07;2.53;;;11.50;83.40;;;;;;5093575;28;20006;-63
2022/01/29 11:53:02;;;;;;;4.15;2.10;;;11.50;84.00;;;;;;5094155;28;20030;-64
2022/01/29 11:55:39;;;;;;;6.68;2.28;;;11.50;83.20;;;;;;5095047;28;20032;-63
2022/01/29 11:58:16;;;;;;;5.55;2.22;;;11.50;83.20;;;;;;5094393;28;20036;-64
2022/01/29 12:00:45;;;;;;;4.28;1.80;;;11.50;83.20;;;;;;5094492;28;20234;-64
2022/01/29 12:03:45;;;;;;;9.15;2.25;;;11.50;83.10;;;;;;5094612;28;20032;-64
2022/01/29 12:06:23;;;;;;;8.55;2.35;;;11.60;83.10;;;;;;5094818;28;20027;-64
2022/01/29 12:11:29;;;;;;;5.95;2.15;;;11.60;82.90;;;;;;5084559;28;20039;-64
2022/01/29 12:14:13;;;;;;;5.78;1.92;;;11.70;82.90;;;;;;5090830;28;20080;-65
2022/01/29 12:16:57;;;;;;;3.78;1.70;;;11.70;82.70;;;;;;5092145;28;20081;-65
2022/01/29 12:19:36;;;;;;;6.85;2.28;;;11.70;82.60;;;;;;5093514;28;20035;-65
2022/01/29 12:22:18;;;;;;;6.97;2.08;;;11.70;82.60;;;;;;5094019;28;20027;-64
2022/01/29 12:24:55;;;;;;;6.60;1.90;;;11.70;82.60;;;;;;5095213;28;20031;-65
2022/01/29 12:27:22;;;;;;;6.72;1.88;;;11.70;83.10;;;;;;5094820;28;20042;-65
2022/01/29 12:29:48;;;;;;;5.35;1.90;;;11.80;82.50;;;;;;5094910;28;20039;-64
2022/01/29 12:32:14;;;;;;;6.45;2.10;;;11.80;82.40;;;;;;5092547;28;20036;-64
2022/01/29 12:34:40;;;;;;;6.13;2.22;;;11.80;82.40;;;;;;5092752;28;20039;-64
2022/01/29 12:37:19;;;;;;;6.45;1.75;;;11.80;82.30;;;;;;5090270;28;20024;-64
2022/01/29 12:39:49;;;;;;;6.65;2.15;;;11.80;82.30;;;;;;5088741;28;20081;-63
2022/01/29 12:44:52;;;;;;;7.03;2.30;;;11.80;82.10;;;;;;5094272;28;20028;-64
2022/01/29 12:47:29;;;;;;;6.65;2.22;;;11.80;82.00;;;;;;5094797;28;20028;-64
2022/01/29 12:49:56;;;;;;;6.07;2.10;;;11.90;82.00;;;;;;5097929;28;20455;-64
2022/01/29 12:52:22;;;;;;;6.43;2.13;;;11.90;82.00;;;;;;5098609;28;20028;-59
2022/01/29 12:54:57;;;;;;;8.10;2.33;;;11.90;81.80;;;;;;5099495;28;20020;-63
2022/01/29 12:57:24;;;;;;;5.45;2.05;;;11.90;81.70;;;;;;5097580;28;20032;-64
2022/01/29 12:59:50;;;;;;;6.68;2.28;;;11.90;81.70;;;;;;5097598;28;20043;-64